Jodel D119


A côté de nos avions modernes à train tricycle, celui qui occupe une place exceptionnelle dans le cœur de bien des pilotes du Club, c’est le petit Jodel D119, biplace de 90 CV qui nous permet de vous proposer l’heure de vol en solo à un prix imbattable (fluctuant en fonction du prix de l’essence).Voir Tarif
Petit biplace côte à côte, à train classique, idéal pour la formation toute en finesse des futurs pilotes (à la condition qu’ils ne soient pas trop lourds) et pour entretenir à moindre coût pendant l’hiver votre habileté au pilotage.

Caractéristiques :

Moteur Continental de 90cv
Consommation : 20 l/h
Autonomie : 4 h + la sécurité
Vitesse de croisière : 185 km/h

Equipement :

-Une VHF
-Un Transpondeur mode S
-Une VOR
-Une GPS

Le Jodel

Webcam :

Nuit aéronautique

16 Dec 2018

Heure locale,
pour LFDL uniquement.

Lever du soleil aéronautique :08:11
Lever du soleil :08:41
Coucher du soleil :17:09
Coucher du soleil aéronautique :17:39

Metar

LFBI :
2018/12/16 15:30
LFBI 161530Z AUTO 17008KT 9999 OVC007 09/08 Q1011 TEMPO 26015G25KT 2500 SHRA BKN008 BKN020CB
LFBI :
Poitiers, France (LFBI) 46-35N 000-19E 120M
Dec 16, 2018 - 10:30 AM EST / 2018.12.16 1530 UTC
Wind: from the S (170 degrees) at 9 MPH (8 KT):0
Visibility: greater than 7 mile(s):0
Sky conditions: overcast
Weather: Cumulonimbus clouds observed
Temperature: 48 F (9 C)
Dew Point: 46 F (8 C)
Relative Humidity: 93%
Pressure (altimeter): 29.85 in. Hg (1011 hPa)
ob: LFBI 161530Z AUTO 17008KT 9999 OVC007 09/08 Q1011 TEMPO 26015G25KT 2500 SHRA BKN008 BKN020CB
cycle: 15

Afficher le metar d'une autre station :
Code OACI :

Aéroclub de Loudun


Bellevue
86200 Loudun


Contacter Michel Richez (président)

  • Mail:michel.richez@free.fr
  • Tel:09-50-38-02-06
  • Mobile:06-52-73-09-01



agrandir le plan

Newsletter

Mon e-mail :